Flight Track Log - Related Links

Times and Time Zones

All times are in EDT time to prevent confusion due to time zone crossing. See the UAL4202 flight status page for this flight to view local times or setup timezone preferences in your user account.

Time Position Orientation Groundspeed Altitude Reporting Facility
EDT Latitude Longitude Course Direction KTS MPH feet Rate Location/Type
Mon 08:28:38 PM 38.7278 -90.2533 98° East 169 194 2,200  Level FAA TRACON SMA TRACON (SMA)
Mon 08:28:58 PM 38.7267 -90.2333 94° East 178 205 2,900 2,250 Climbing FAA TRACON SMA TRACON (SMA)
Mon 08:29:18 PM 38.7286 -90.2058 85° East 201 231 3,700 1,950 Climbing FAA TRACON SMA TRACON (SMA)
Mon 08:29:38 PM 38.7294 -90.1817 87° East 218 251 4,200 1,950 Climbing FAA TRACON SMA TRACON (SMA)
Mon 08:29:58 PM 38.7314 -90.1567 84° East 229 264 5,000 2,400 Climbing FAA TRACON SMA TRACON (SMA)
Mon 08:30:18 PM 38.7336 -90.1236 85° East 240 276 5,800 2,250 Climbing FAA TRACON SMA TRACON (SMA)
Mon 08:30:38 PM 38.7356 -90.0958 85° East 251 289 6,500 2,250 Climbing FAA TRACON SMA TRACON (SMA)
Mon 08:30:58 PM 38.7381 -90.0678 83° East 258 297 7,300 2,700 Climbing FAA TRACON SMA TRACON (SMA)
Mon 08:31:00 PM 38.7564 -89.9379 87° East  Level FlightAware Approximate
Mon 08:31:18 PM 38.7414 -90.0314 83° East 266 306 8,300  Level FAA TRACON SMA TRACON (SMA)
Mon 08:31:38 PM 38.7431 -90.0017 86° East 272 313 8,800 1,650 Climbing FAA TRACON SMA TRACON (SMA)
Mon 08:31:58 PM 38.7450 -89.9708 85° East 281 323 9,400 1,800 Climbing FAA TRACON SMA TRACON (SMA)
Mon 08:32:00 PM 38.7619 -89.7948 87° East  Level FlightAware Approximate
Mon 08:32:18 PM 38.7489 -89.9297 83° East 299 344 10,000  Level FAA TRACON SMA TRACON (SMA)
Mon 08:32:38 PM 38.7517 -89.8953 84° East 314 361 10,300 1,200 Climbing FAA TRACON SMA TRACON (SMA)
Mon 08:32:58 PM 38.7544 -89.8592 84° East 329 379 10,800 1,395 Climbing FAA TRACON SMA TRACON (SMA)
Mon 08:33:00 PM 38.7688 -89.6519 80° East  Level FlightAware Approximate
Mon 08:33:21 PM 38.7581 -89.8119 84° East 344 396 11,300  Level FAA TRACON SMA TRACON (SMA)
Mon 08:33:41 PM 38.7631 -89.7633 82° East 355 409 11,900 1,459 Climbing FAA TRACON SMA TRACON (SMA)
Mon 08:33:58 PM 38.7656 -89.7333 84° East 363 418 12,200 1,135 Climbing FAA TRACON SMA TRACON (SMA)
Mon 08:34:18 PM 38.7689 -89.6822 85° East 373 429 12,600 1,200 Climbing FAA TRACON SMA TRACON (SMA)
Mon 08:34:38 PM 38.7722 -89.6406 84° East 382 440 13,000 1,050 Climbing FAA TRACON SMA TRACON (SMA)
Mon 08:34:58 PM 38.7747 -89.5975 86° East 391 450 13,300 1,050 Climbing FAA TRACON SMA TRACON (SMA)
Mon 08:35:18 PM 38.7808 -89.5431 82° East 399 459 13,700 1,116 Climbing FAA TRACON SMA TRACON (SMA)
Mon 08:35:41 PM 38.7856 -89.4878 84° East 406 467 14,100 1,304 Climbing FAA TRACON SMA TRACON (SMA)
Mon 08:36:04 PM 38.7925 -89.4325 81° East 410 472 14,700 1,500 Climbing FAA TRACON SMA TRACON (SMA)
Mon 08:36:21 PM 38.7975 -89.3994 79° East 411 473 15,100 1,235 Climbing FAA TRACON SMA TRACON (SMA)
Mon 08:36:38 PM 38.8039 -89.3550 80° East 412 474 15,400 973 Climbing FAA TRACON SMA TRACON (SMA)
Mon 08:36:58 PM 38.8103 -89.3100 80° East 415 478 15,700 1,350 Climbing FAA TRACON SMA TRACON (SMA)
Mon 08:37:18 PM 38.8164 -89.2531 82° East 419 482 16,300 1,500 Climbing FAA TRACON SMA TRACON (SMA)
Mon 08:37:38 PM 38.8236 -89.2083 78° East 418 481 16,700 1,200 Climbing FAA TRACON SMA TRACON (SMA)
Mon 08:37:58 PM 38.8283 -89.1631 82° East 417 480 17,100 1,350 Climbing FAA TRACON SMA TRACON (SMA)
Mon 08:38:18 PM 38.8383 -89.1067 77° East 421 484 17,600 1,200 Climbing FAA TRACON SMA TRACON (SMA)
Mon 08:38:38 PM 38.8425 -89.0722 81° East 421 484 17,900 450 Climbing FAA TRACON SMA TRACON (SMA)
Mon 08:38:58 PM 38.8425 -89.0722 270° West 421 484 17,900 1,297 Level FAA TRACON SMA TRACON (SMA)
Mon 08:39:52 PM 38.8619 -88.9569 78° East 427 491 19,500 1,513 Climbing Kansas City Center
Mon 08:40:53 PM 38.8831 -88.8056 80° East 431 496 20,800 1,339 Climbing Kansas City Center
Mon 08:41:53 PM 38.9056 -88.6250 81° East 435 501 22,200 1,452 Climbing Kansas City Center
Mon 08:42:57 PM 38.9244 -88.4706 81° East 436 502 23,800 1,293 Climbing Kansas City Center
Mon 08:43:49 PM 38.9564 -88.3539 71° East 436 502 24,700 1,221 Climbing Indianapolis Center
Mon 08:44:50 PM 38.9897 -88.2044 74° East 435 501 26,100 1,415 Climbing Indianapolis Center
Mon 08:45:52 PM 39.0125 -88.0511 79° East 435 501 27,600 1,463 Climbing Indianapolis Center
Mon 08:46:53 PM 39.0353 -87.8997 79° East 431 496 29,100 1,574 Climbing Indianapolis Center
Mon 08:47:54 PM 39.0692 -87.7231 76° East 423 487 30,800 1,317 Climbing Indianapolis Center
Mon 08:48:56 PM 39.1261 -87.5928 61° Northeast 425 489 31,800 1,024 Climbing Indianapolis Center
Mon 08:49:57 PM 39.1853 -87.4528 61° Northeast 440 506 32,900 1,024 Climbing Indianapolis Center
Mon 08:50:59 PM 39.2450 -87.3086 62° Northeast 450 518 33,900 976 Climbing Indianapolis Center
Mon 08:52:00 PM 39.3089 -87.1639 60° Northeast 459 528 34,900 541 Climbing Indianapolis Center
Mon 08:53:01 PM 39.3711 -87.0128 62° Northeast 472 543 35,000 49 Climbing Indianapolis Center
Mon 08:54:03 PM 39.4386 -86.8533 61° Northeast 499 574 35,000  Level Indianapolis Center
Mon 08:55:04 PM 39.5069 -86.6892 62° Northeast 511 588 35,000  Level Indianapolis Center
Mon 08:56:05 PM 39.5750 -86.5261 62° Northeast 513 590 35,000  Level Indianapolis Center
Mon 08:57:06 PM 39.6417 -86.3636 62° Northeast 512 589 35,000  Level Indianapolis Center
Mon 08:58:08 PM 39.7114 -86.1961 62° Northeast 510 587 35,000  Level Indianapolis Center
Mon 08:59:09 PM 39.7817 -86.0211 62° Northeast 504 580 35,000  Level Indianapolis Center
Mon 09:00:10 PM 39.8472 -85.8583 62° Northeast 506 582 35,000  Level Indianapolis Center
Mon 09:01:12 PM 39.9136 -85.6947 62° Northeast 507 583 35,000  Level Indianapolis Center
Mon 09:02:13 PM 39.9794 -85.5289 63° Northeast 510 587 35,000  Level Indianapolis Center
Mon 09:03:14 PM 40.0469 -85.3628 62° Northeast 514 592 35,000  Level Indianapolis Center
Mon 09:04:15 PM 40.1128 -85.1953 63° Northeast 514 592 35,000  Level Indianapolis Center
Mon 09:05:17 PM 40.1794 -85.0275 62° Northeast 516 594 35,000  Level Indianapolis Center
Mon 09:06:18 PM 40.2492 -84.8503 63° Northeast 509 586 35,000  Level Indianapolis Center
Mon 09:07:19 PM 40.3028 -84.6758 68° East 513 590 35,000  Level Indianapolis Center
Mon 09:08:21 PM 40.3356 -84.4917 77° East 516 594 35,000  Level Indianapolis Center
Mon 09:09:22 PM 40.3700 -84.3050 76° East 523 602 35,000  Level Indianapolis Center
Mon 09:10:23 PM 40.4036 -84.1175 77° East 523 602 35,000 -49 Level Indianapolis Center
Mon 09:11:24 PM 40.4697 -83.9531 62° Northeast 505 581 34,900 -49 Descending Indianapolis Center
Mon 09:12:26 PM 40.5378 -83.7900 61° Northeast 502 578 34,900 49 Level Indianapolis Center
Mon 09:13:27 PM 40.6042 -83.6297 61° Northeast 494 568 35,000 53 Climbing Indianapolis Center
Mon 09:14:20 PM 40.6725 -83.4686 61° Northeast 488 562 35,000 -53 Level Cleveland Center
Mon 09:15:20 PM 40.7369 -83.3097 62° Northeast 488 562 34,900  Descending Cleveland Center
Mon 09:16:20 PM 40.8053 -83.1481 61° Northeast 493 567 35,000 50 Climbing Cleveland Center
Mon 09:17:20 PM 40.8653 -82.9883 64° Northeast 486 559 35,000  Level Cleveland Center
Mon 09:18:20 PM 40.9311 -82.8231 62° Northeast 486 559 35,000  Level Cleveland Center
Mon 09:19:20 PM 40.9967 -82.6631 61° Northeast 486 559 35,000  Level Cleveland Center
Mon 09:20:20 PM 41.0600 -82.5025 62° Northeast 486 559 35,000  Level Cleveland Center
Mon 09:21:20 PM 41.1164 -82.3608 62° Northeast 486 559 35,000  Level Cleveland Center
Mon 09:22:20 PM 41.1836 -82.1944 62° Northeast 494 568 35,000  Level Cleveland Center
Mon 09:23:20 PM 41.2483 -82.0275 63° Northeast 499 574 35,000  Level Cleveland Center
Mon 09:24:20 PM 41.3150 -81.8631 62° Northeast 499 574 35,000  Level Cleveland Center
Mon 09:25:20 PM 41.3833 -81.6900 62° Northeast 504 580 35,000  Level Cleveland Center
Mon 09:26:20 PM 41.4539 -81.5028 63° Northeast 509 586 35,000  Level Cleveland Center
Mon 09:27:20 PM 41.5178 -81.3347 63° Northeast 509 586 35,000  Level Cleveland Center
Mon 09:28:20 PM 41.5811 -81.1661 63° Northeast 508 585 35,000  Level Cleveland Center
Mon 09:29:20 PM 41.6486 -80.9917 63° Northeast 508 585 35,000  Level Cleveland Center
Mon 09:30:20 PM 41.7200 -80.8531 55° Northeast 508 585 35,000  Level Cleveland Center
Mon 09:31:20 PM 41.8181 -80.7169 46° Northeast 503 579 35,000  Level Cleveland Center
Mon 09:32:20 PM 41.8767 -80.5442 65° Northeast 505 581 35,000  Level Cleveland Center
Mon 09:33:20 PM 41.8597 -80.3489 97° East 493 567 35,000  Level Cleveland Center
Mon 09:34:20 PM 41.8342 -80.1539 100° East 511 588 35,000  Level Cleveland Center
Mon 09:35:20 PM 41.8083 -79.9619 100° East 522 601 35,000  Level Cleveland Center
Mon 09:36:20 PM 41.7797 -79.7589 101° East 522 601 35,000  Level Cleveland Center
Mon 09:37:20 PM 41.7533 -79.5756 101° East 511 588 35,000  Level Cleveland Center
Mon 09:38:20 PM 41.7267 -79.3897 101° East 505 581 35,000  Level Cleveland Center
Mon 09:39:20 PM 41.7017 -79.2233 101° East 505 581 35,000  Level Cleveland Center
Mon 09:40:20 PM 41.6764 -79.0347 100° East 505 581 35,000  Level Cleveland Center
Mon 09:41:20 PM 41.6444 -78.8297 102° East 510 587 35,000  Level Cleveland Center
Mon 09:42:20 PM 41.6164 -78.6444 101° East 510 587 35,000 -573 Level Cleveland Center
Mon 09:44:18 PM 41.5689 -78.3217 101° East 494 568 33,300 -1,112 Descending New York Center
Mon 09:45:18 PM 41.5403 -78.1464 102° East 483 556 31,700 -1,179 Descending New York Center
Mon 09:46:15 PM 41.5117 -77.9686 102° East 483 556 31,000 -356 Descending New York Center
Mon 09:47:16 PM 41.4869 -77.7889 100° East 483 556 31,000  Level New York Center
Mon 09:48:16 PM 41.4622 -77.6033 100° East 495 570 31,000  Level New York Center
Mon 09:49:17 PM 41.4350 -77.4236 101° East 502 578 31,000  Level New York Center
Mon 09:50:17 PM 41.4042 -77.2267 102° East 502 578 31,000  Level New York Center
Mon 09:51:18 PM 41.3764 -77.0444 101° East 497 572 31,000 -655 Level New York Center
Mon 09:52:16 PM 41.3503 -76.8650 101° East 497 572 29,700 -1,916 Descending New York Center
Mon 09:53:17 PM 41.3153 -76.6933 105° East 491 565 27,200 -2,479 Descending New York Center
Mon 09:54:17 PM 41.2731 -76.5378 110° East 465 535 24,700 -2,529 Descending New York Center
Mon 09:55:18 PM 41.2336 -76.4019 111° Southeast 454 522 22,100 -2,521 Descending New York Center
Mon 09:56:16 PM 41.1969 -76.2556 108° East 429 494 19,700 -2,067 Descending New York Center
Mon 09:57:17 PM 41.1594 -76.1147 109° East 412 474 18,000 -1,140 Descending New York Center
Mon 09:58:17 PM 41.1186 -75.9600 109° East 402 463 17,400 -1,300 Descending New York Center
Mon 09:59:17 PM 41.0808 -75.8222 110° East 396 456 15,400 -2,017 Descending New York Center
Mon 10:00:16 PM 41.0464 -75.6986 110° East 396 456 13,400 -1,200 Descending New York Center
Mon 10:01:17 PM 41.0100 -75.5694 110° East 390 449 13,000 -694 Descending New York Center
Mon 10:02:17 PM 40.9719 -75.4292 110° East 374 430 12,000 -1,100 Descending New York Center
Mon 10:03:17 PM 40.9369 -75.3114 111° Southeast 369 425 10,800 -1,475 Descending New York Center
Mon 10:04:15 PM 40.9078 -75.1997 109° East 332 382 9,100 -1,613 Descending New York Center
Mon 10:05:16 PM 40.8797 -75.1100 112° Southeast 308 354 7,600 -1,041 Descending New York Center
Mon 10:06:16 PM 40.8522 -75.0094 110° East 295 339 7,000 -300 Descending New York Center
Mon 10:07:16 PM 40.8206 -74.9006 111° Southeast 290 334 7,000  Level New York Center
Mon 10:08:17 PM 40.7800 -74.8106 121° Southeast 295 339 7,000  Level New York Center
Mon 10:09:16 PM 40.7433 -74.7261 120° Southeast 290 334 7,000 -450 Level New York Center
Mon 10:10:17 PM 40.7900 -74.6356 56° Northeast 236 272 6,100 -638 Descending New York Center
Mon 10:10:50 PM 40.8167 -74.6000 45° Northeast 295 339 6,000 -516 Descending New York TRACON
Mon 10:11:50 PM 40.8667 -74.5167 52° Northeast 296 341 5,300 -759 Descending New York TRACON
Mon 10:12:17 PM 40.8828 -74.4681 66° East 280 322 4,900 -918 Descending New York Center
Mon 10:13:15 PM 40.9044 -74.3758 73° East 280 322 4,000 -968 Descending New York Center
Mon 10:13:50 PM 40.9167 -74.3167 75° East 279 321 3,400 -632 Descending New York TRACON
Mon 10:14:50 PM 40.9167 -74.2167 90° East 263 303 3,000 -200 Descending New York TRACON
Mon 10:15:50 PM 40.8833 -74.1333 118° Southeast 222 255 3,000 50 Level New York TRACON
Mon 10:16:50 PM 40.8667 -74.0667 108° East 208 239 3,100 -50 Climbing New York TRACON
Mon 10:17:50 PM 40.8333 -74.0833 201° Southwest 145 167 2,900 -550 Descending New York TRACON
Mon 10:18:50 PM 40.7833 -74.1000 194° South 145 167 2,000 -800 Descending New York TRACON
Mon 10:19:50 PM 40.7500 -74.1333 217° Southwest 133 153 1,300 -650 Descending New York TRACON
Mon 10:20:50 PM 40.7333 -74.1500 217° Southwest 117 135 700 -600 Descending New York TRACON
Mon 10:22:00 PM 40.6925 -74.1687 102° East  Level Estimated
Mon 10:29:00 PM 40.6925 -74.1687 102° East  Level Estimated

Login

Don't have an account? Register now (free) for customized features, flight alerts, and more!